sensor_id;sensor_type;location;lat;lon;timestamp;temperature;humidity
20512;DHT22;10414;52.074;5.126;2023-03-20T00:00:28;9.80;99.90
20512;DHT22;10414;52.074;5.126;2023-03-20T00:02:55;9.90;99.90
20512;DHT22;10414;52.074;5.126;2023-03-20T00:05:23;10.00;99.90
20512;DHT22;10414;52.074;5.126;2023-03-20T00:07:50;10.00;99.90
20512;DHT22;10414;52.074;5.126;2023-03-20T00:10:20;10.00;99.90
20512;DHT22;10414;52.074;5.126;2023-03-20T00:12:49;9.90;99.90
20512;DHT22;10414;52.074;5.126;2023-03-20T00:15:26;9.90;99.90
20512;DHT22;10414;52.074;5.126;2023-03-20T00:17:53;9.80;99.90
20512;DHT22;10414;52.074;5.126;2023-03-20T00:20:21;9.90;99.90
20512;DHT22;10414;52.074;5.126;2023-03-20T00:22:48;9.90;99.90
20512;DHT22;10414;52.074;5.126;2023-03-20T00:25:17;10.10;99.90
20512;DHT22;10414;52.074;5.126;2023-03-20T00:27:46;10.00;99.90
20512;DHT22;10414;52.074;5.126;2023-03-20T00:30:22;10.00;99.90
20512;DHT22;10414;52.074;5.126;2023-03-20T00:32:51;10.10;99.90
20512;DHT22;10414;52.074;5.126;2023-03-20T00:35:21;9.90;99.90
20512;DHT22;10414;52.074;5.126;2023-03-20T00:37:48;9.70;99.90
20512;DHT22;10414;52.074;5.126;2023-03-20T00:40:16;9.70;99.90
20512;DHT22;10414;52.074;5.126;2023-03-20T00:42:43;9.80;99.90
20512;DHT22;10414;52.074;5.126;2023-03-20T00:45:15;9.90;99.90
20512;DHT22;10414;52.074;5.126;2023-03-20T00:47:43;9.80;99.90
20512;DHT22;10414;52.074;5.126;2023-03-20T00:50:18;9.70;99.90
20512;DHT22;10414;52.074;5.126;2023-03-20T00:52:46;9.60;99.90
20512;DHT22;10414;52.074;5.126;2023-03-20T00:55:13;9.80;99.90
20512;DHT22;10414;52.074;5.126;2023-03-20T00:57:43;9.70;99.90
20512;DHT22;10414;52.074;5.126;2023-03-20T01:00:25;9.50;99.90
20512;DHT22;10414;52.074;5.126;2023-03-20T01:02:54;9.40;99.90
20512;DHT22;10414;52.074;5.126;2023-03-20T01:05:22;9.50;99.90
20512;DHT22;10414;52.074;5.126;2023-03-20T01:07:49;9.70;99.90
20512;DHT22;10414;52.074;5.126;2023-03-20T01:10:16;9.60;99.90
20512;DHT22;10414;52.074;5.126;2023-03-20T01:12:43;9.70;99.90
20512;DHT22;10414;52.074;5.126;2023-03-20T01:15:17;9.60;99.90
20512;DHT22;10414;52.074;5.126;2023-03-20T01:17:46;9.50;99.90
20512;DHT22;10414;52.074;5.126;2023-03-20T01:20:15;9.40;99.90
20512;DHT22;10414;52.074;5.126;2023-03-20T01:22:42;9.10;99.90
20512;DHT22;10414;52.074;5.126;2023-03-20T01:25:09;9.20;99.90
20512;DHT22;10414;52.074;5.126;2023-03-20T01:27:37;9.30;99.90
20512;DHT22;10414;52.074;5.126;2023-03-20T01:30:20;9.20;99.90
20512;DHT22;10414;52.074;5.126;2023-03-20T01:32:48;9.30;99.90
20512;DHT22;10414;52.074;5.126;2023-03-20T01:35:17;9.50;99.90
20512;DHT22;10414;52.074;5.126;2023-03-20T01:37:45;9.60;99.90
20512;DHT22;10414;52.074;5.126;2023-03-20T01:40:26;9.70;99.90
20512;DHT22;10414;52.074;5.126;2023-03-20T01:42:54;9.60;99.90
20512;DHT22;10414;52.074;5.126;2023-03-20T01:45:27;9.60;99.90
20512;DHT22;10414;52.074;5.126;2023-03-20T01:47:57;9.40;99.90
20512;DHT22;10414;52.074;5.126;2023-03-20T01:50:28;9.40;99.90
20512;DHT22;10414;52.074;5.126;2023-03-20T01:53:03;9.50;99.90
20512;DHT22;10414;52.074;5.126;2023-03-20T01:55:31;9.30;99.90
20512;DHT22;10414;52.074;5.126;2023-03-20T01:58:02;9.20;99.90
20512;DHT22;10414;52.074;5.126;2023-03-20T02:00:29;9.30;99.90
20512;DHT22;10414;52.074;5.126;2023-03-20T02:02:58;9.20;99.90
20512;DHT22;10414;52.074;5.126;2023-03-20T02:05:25;9.20;99.90
20512;DHT22;10414;52.074;5.126;2023-03-20T02:08:01;9.10;99.90
20512;DHT22;10414;52.074;5.126;2023-03-20T02:10:31;9.00;99.90
20512;DHT22;10414;52.074;5.126;2023-03-20T02:12:59;8.90;99.90
20512;DHT22;10414;52.074;5.126;2023-03-20T02:15:29;8.90;99.90
20512;DHT22;10414;52.074;5.126;2023-03-20T02:17:57;9.00;99.90
20512;DHT22;10414;52.074;5.126;2023-03-20T02:20:33;8.80;99.90
20512;DHT22;10414;52.074;5.126;2023-03-20T02:26:17;8.80;99.90
20512;DHT22;10414;52.074;5.126;2023-03-20T02:29:09;8.90;99.90
20512;DHT22;10414;52.074;5.126;2023-03-20T02:32:19;8.70;99.90
20512;DHT22;10414;52.074;5.126;2023-03-20T02:41:22;8.70;99.90
20512;DHT22;10414;52.074;5.126;2023-03-20T02:43:57;8.60;99.90
20512;DHT22;10414;52.074;5.126;2023-03-20T02:46:33;8.80;99.90
20512;DHT22;10414;52.074;5.126;2023-03-20T02:49:08;8.70;99.90
20512;DHT22;10414;52.074;5.126;2023-03-20T02:51:39;8.70;99.90
20512;DHT22;10414;52.074;5.126;2023-03-20T02:54:15;8.50;99.90
20512;DHT22;10414;52.074;5.126;2023-03-20T02:56:54;8.40;99.90
20512;DHT22;10414;52.074;5.126;2023-03-20T02:59:28;8.50;99.90
20512;DHT22;10414;52.074;5.126;2023-03-20T03:02:02;8.40;99.90
20512;DHT22;10414;52.074;5.126;2023-03-20T03:04:33;8.40;99.90
20512;DHT22;10414;52.074;5.126;2023-03-20T03:07:03;8.40;99.90
20512;DHT22;10414;52.074;5.126;2023-03-20T03:09:35;8.30;99.90
20512;DHT22;10414;52.074;5.126;2023-03-20T03:12:06;8.40;99.90
20512;DHT22;10414;52.074;5.126;2023-03-20T03:14:39;8.40;99.90
20512;DHT22;10414;52.074;5.126;2023-03-20T03:17:07;8.20;99.90
20512;DHT22;10414;52.074;5.126;2023-03-20T03:19:36;8.10;99.90
20512;DHT22;10414;52.074;5.126;2023-03-20T03:22:06;8.20;99.90
20512;DHT22;10414;52.074;5.126;2023-03-20T03:24:37;8.20;99.90
20512;DHT22;10414;52.074;5.126;2023-03-20T03:27:06;8.30;99.90
20512;DHT22;10414;52.074;5.126;2023-03-20T03:29:36;8.10;99.90
20512;DHT22;10414;52.074;5.126;2023-03-20T03:32:05;8.20;99.90
20512;DHT22;10414;52.074;5.126;2023-03-20T03:34:33;8.20;99.90
20512;DHT22;10414;52.074;5.126;2023-03-20T03:37:06;8.20;99.90
20512;DHT22;10414;52.074;5.126;2023-03-20T03:39:39;8.30;99.90
20512;DHT22;10414;52.074;5.126;2023-03-20T03:42:12;8.20;99.90
20512;DHT22;10414;52.074;5.126;2023-03-20T03:44:47;8.00;99.90
20512;DHT22;10414;52.074;5.126;2023-03-20T03:47:20;8.00;99.90
20512;DHT22;10414;52.074;5.126;2023-03-20T03:49:49;8.00;99.90
20512;DHT22;10414;52.074;5.126;2023-03-20T03:52:20;8.00;99.90
20512;DHT22;10414;52.074;5.126;2023-03-20T03:54:51;8.00;99.90
20512;DHT22;10414;52.074;5.126;2023-03-20T03:57:23;8.00;99.90
20512;DHT22;10414;52.074;5.126;2023-03-20T03:59:51;8.00;99.90
20512;DHT22;10414;52.074;5.126;2023-03-20T04:02:20;8.10;99.90
20512;DHT22;10414;52.074;5.126;2023-03-20T04:04:50;8.20;99.90
20512;DHT22;10414;52.074;5.126;2023-03-20T04:07:17;8.30;99.90
20512;DHT22;10414;52.074;5.126;2023-03-20T04:09:44;8.20;99.90
20512;DHT22;10414;52.074;5.126;2023-03-20T04:12:31;8.00;99.90
20512;DHT22;10414;52.074;5.126;2023-03-20T04:14:59;7.90;99.90
20512;DHT22;10414;52.074;5.126;2023-03-20T04:17:26;8.00;99.90
20512;DHT22;10414;52.074;5.126;2023-03-20T04:19:53;7.90;99.90
20512;DHT22;10414;52.074;5.126;2023-03-20T04:22:20;7.90;99.90
20512;DHT22;10414;52.074;5.126;2023-03-20T04:24:46;7.90;99.90
20512;DHT22;10414;52.074;5.126;2023-03-20T04:27:13;8.00;99.90
20512;DHT22;10414;52.074;5.126;2023-03-20T04:29:42;8.00;99.90
20512;DHT22;10414;52.074;5.126;2023-03-20T04:32:10;7.90;99.90
20512;DHT22;10414;52.074;5.126;2023-03-20T04:34:37;7.90;99.90
20512;DHT22;10414;52.074;5.126;2023-03-20T04:37:03;8.00;99.90
20512;DHT22;10414;52.074;5.126;2023-03-20T04:39:32;7.90;99.90
20512;DHT22;10414;52.074;5.126;2023-03-20T04:41:59;7.90;99.90
20512;DHT22;10414;52.074;5.126;2023-03-20T04:44:26;7.90;99.90
20512;DHT22;10414;52.074;5.126;2023-03-20T04:46:55;7.90;99.90
20512;DHT22;10414;52.074;5.126;2023-03-20T04:49:22;7.90;99.90
20512;DHT22;10414;52.074;5.126;2023-03-20T04:51:49;8.00;99.90
20512;DHT22;10414;52.074;5.126;2023-03-20T04:54:15;8.10;99.90
20512;DHT22;10414;52.074;5.126;2023-03-20T04:56:42;8.20;99.90
20512;DHT22;10414;52.074;5.126;2023-03-20T04:59:09;8.10;99.90
20512;DHT22;10414;52.074;5.126;2023-03-20T05:01:36;8.00;99.90
20512;DHT22;10414;52.074;5.126;2023-03-20T05:04:05;8.00;99.90
20512;DHT22;10414;52.074;5.126;2023-03-20T05:06:32;7.90;99.90
20512;DHT22;10414;52.074;5.126;2023-03-20T05:08:59;8.00;99.90
20512;DHT22;10414;52.074;5.126;2023-03-20T05:11:27;7.90;99.90
20512;DHT22;10414;52.074;5.126;2023-03-20T05:13:54;8.00;99.90
20512;DHT22;10414;52.074;5.126;2023-03-20T05:16:21;7.90;99.90
20512;DHT22;10414;52.074;5.126;2023-03-20T05:18:48;7.80;99.90
20512;DHT22;10414;52.074;5.126;2023-03-20T05:21:17;7.80;99.90
20512;DHT22;10414;52.074;5.126;2023-03-20T05:23:44;7.70;99.90
20512;DHT22;10414;52.074;5.126;2023-03-20T05:26:11;7.80;99.90
20512;DHT22;10414;52.074;5.126;2023-03-20T05:28:38;7.80;99.90
20512;DHT22;10414;52.074;5.126;2023-03-20T05:31:05;7.90;99.90
20512;DHT22;10414;52.074;5.126;2023-03-20T05:33:32;7.90;99.90
20512;DHT22;10414;52.074;5.126;2023-03-20T05:36:00;8.00;99.90
20512;DHT22;10414;52.074;5.126;2023-03-20T05:38:31;7.90;99.90
20512;DHT22;10414;52.074;5.126;2023-03-20T05:40:59;7.90;99.90
20512;DHT22;10414;52.074;5.126;2023-03-20T05:43:27;8.10;99.90
20512;DHT22;10414;52.074;5.126;2023-03-20T05:45:54;8.10;99.90
20512;DHT22;10414;52.074;5.126;2023-03-20T05:48:24;8.00;99.90
20512;DHT22;10414;52.074;5.126;2023-03-20T05:50:51;8.10;99.90
20512;DHT22;10414;52.074;5.126;2023-03-20T05:53:18;7.90;99.90
20512;DHT22;10414;52.074;5.126;2023-03-20T05:55:47;7.90;99.90
20512;DHT22;10414;52.074;5.126;2023-03-20T05:58:14;7.90;99.90
20512;DHT22;10414;52.074;5.126;2023-03-20T06:00:41;8.00;99.90
20512;DHT22;10414;52.074;5.126;2023-03-20T06:03:08;7.90;99.90
20512;DHT22;10414;52.074;5.126;2023-03-20T06:05:36;8.00;99.90
20512;DHT22;10414;52.074;5.126;2023-03-20T06:08:04;8.00;99.90
20512;DHT22;10414;52.074;5.126;2023-03-20T06:10:31;8.00;99.90
20512;DHT22;10414;52.074;5.126;2023-03-20T06:13:00;8.00;99.90
20512;DHT22;10414;52.074;5.126;2023-03-20T06:15:27;8.10;99.90
20512;DHT22;10414;52.074;5.126;2023-03-20T06:17:57;8.10;99.90
20512;DHT22;10414;52.074;5.126;2023-03-20T06:20:25;7.90;99.90
20512;DHT22;10414;52.074;5.126;2023-03-20T06:22:52;7.90;99.90
20512;DHT22;10414;52.074;5.126;2023-03-20T06:25:19;7.90;99.90
20512;DHT22;10414;52.074;5.126;2023-03-20T06:27:46;8.00;99.90
20512;DHT22;10414;52.074;5.126;2023-03-20T06:30:16;8.20;99.90
20512;DHT22;10414;52.074;5.126;2023-03-20T06:32:43;8.30;99.90
20512;DHT22;10414;52.074;5.126;2023-03-20T06:35:11;8.30;99.90
20512;DHT22;10414;52.074;5.126;2023-03-20T06:37:39;8.40;99.90
20512;DHT22;10414;52.074;5.126;2023-03-20T06:40:10;8.20;99.90
20512;DHT22;10414;52.074;5.126;2023-03-20T06:42:40;8.30;99.90
20512;DHT22;10414;52.074;5.126;2023-03-20T06:45:08;8.30;99.90
20512;DHT22;10414;52.074;5.126;2023-03-20T06:47:41;8.10;99.90
20512;DHT22;10414;52.074;5.126;2023-03-20T06:50:12;8.20;99.90
20512;DHT22;10414;52.074;5.126;2023-03-20T06:52:45;8.10;99.90
20512;DHT22;10414;52.074;5.126;2023-03-20T06:55:16;8.00;99.90
20512;DHT22;10414;52.074;5.126;2023-03-20T06:57:46;8.10;99.90
20512;DHT22;10414;52.074;5.126;2023-03-20T07:00:14;8.20;99.90
20512;DHT22;10414;52.074;5.126;2023-03-20T07:02:43;8.30;99.90
20512;DHT22;10414;52.074;5.126;2023-03-20T07:05:10;8.20;99.90
20512;DHT22;10414;52.074;5.126;2023-03-20T07:07:40;8.10;99.90
20512;DHT22;10414;52.074;5.126;2023-03-20T07:10:09;8.40;99.90
20512;DHT22;10414;52.074;5.126;2023-03-20T07:12:36;8.30;99.90
20512;DHT22;10414;52.074;5.126;2023-03-20T07:15:09;8.30;99.90
20512;DHT22;10414;52.074;5.126;2023-03-20T07:17:40;8.20;99.90
20512;DHT22;10414;52.074;5.126;2023-03-20T07:20:10;8.00;99.90
20512;DHT22;10414;52.074;5.126;2023-03-20T07:22:37;8.20;99.90
20512;DHT22;10414;52.074;5.126;2023-03-20T07:25:07;8.20;99.90
20512;DHT22;10414;52.074;5.126;2023-03-20T07:27:37;8.20;99.90
20512;DHT22;10414;52.074;5.126;2023-03-20T07:30:06;8.30;99.90
20512;DHT22;10414;52.074;5.126;2023-03-20T07:32:34;8.40;99.90
20512;DHT22;10414;52.074;5.126;2023-03-20T07:35:01;8.40;99.90
20512;DHT22;10414;52.074;5.126;2023-03-20T07:37:30;8.40;99.90
20512;DHT22;10414;52.074;5.126;2023-03-20T07:42:44;8.70;99.90
20512;DHT22;10414;52.074;5.126;2023-03-20T07:45:23;8.60;99.90
20512;DHT22;10414;52.074;5.126;2023-03-20T07:47:50;8.70;99.90
20512;DHT22;10414;52.074;5.126;2023-03-20T07:50:17;8.80;99.90
20512;DHT22;10414;52.074;5.126;2023-03-20T07:52:49;8.80;99.90
20512;DHT22;10414;52.074;5.126;2023-03-20T07:55:22;8.70;99.90
20512;DHT22;10414;52.074;5.126;2023-03-20T07:57:52;8.70;99.90
20512;DHT22;10414;52.074;5.126;2023-03-20T08:00:19;8.90;99.90
20512;DHT22;10414;52.074;5.126;2023-03-20T08:02:47;8.80;99.90
20512;DHT22;10414;52.074;5.126;2023-03-20T08:05:14;9.00;99.90
20512;DHT22;10414;52.074;5.126;2023-03-20T08:07:41;8.90;99.90
20512;DHT22;10414;52.074;5.126;2023-03-20T08:10:11;9.00;99.90
20512;DHT22;10414;52.074;5.126;2023-03-20T08:12:38;8.90;99.90
20512;DHT22;10414;52.074;5.126;2023-03-20T08:15:06;9.00;99.90
20512;DHT22;10414;52.074;5.126;2023-03-20T08:17:36;9.00;99.90
20512;DHT22;10414;52.074;5.126;2023-03-20T08:20:07;9.10;99.90
20512;DHT22;10414;52.074;5.126;2023-03-20T08:22:35;9.10;99.90
20512;DHT22;10414;52.074;5.126;2023-03-20T08:25:03;9.10;99.90
20512;DHT22;10414;52.074;5.126;2023-03-20T08:27:32;9.20;99.90
20512;DHT22;10414;52.074;5.126;2023-03-20T08:29:59;9.20;99.90
20512;DHT22;10414;52.074;5.126;2023-03-20T08:32:27;9.20;99.90
20512;DHT22;10414;52.074;5.126;2023-03-20T08:34:57;9.10;99.90
20512;DHT22;10414;52.074;5.126;2023-03-20T08:37:24;9.20;99.90
20512;DHT22;10414;52.074;5.126;2023-03-20T08:39:51;9.10;99.90
20512;DHT22;10414;52.074;5.126;2023-03-20T08:42:18;9.10;99.90
20512;DHT22;10414;52.074;5.126;2023-03-20T08:44:50;8.90;99.90
20512;DHT22;10414;52.074;5.126;2023-03-20T08:47:19;9.00;99.90
20512;DHT22;10414;52.074;5.126;2023-03-20T08:49:46;9.00;99.90
20512;DHT22;10414;52.074;5.126;2023-03-20T08:52:17;9.00;99.90
20512;DHT22;10414;52.074;5.126;2023-03-20T08:54:47;8.90;99.90
20512;DHT22;10414;52.074;5.126;2023-03-20T08:57:17;9.00;99.90
20512;DHT22;10414;52.074;5.126;2023-03-20T08:59:44;9.10;99.90
20512;DHT22;10414;52.074;5.126;2023-03-20T09:02:12;9.00;99.90
20512;DHT22;10414;52.074;5.126;2023-03-20T09:04:45;8.90;99.90
20512;DHT22;10414;52.074;5.126;2023-03-20T09:07:12;8.80;99.90
20512;DHT22;10414;52.074;5.126;2023-03-20T09:09:40;9.00;99.90
20512;DHT22;10414;52.074;5.126;2023-03-20T09:12:15;9.20;99.90
20512;DHT22;10414;52.074;5.126;2023-03-20T09:14:46;9.20;99.90
20512;DHT22;10414;52.074;5.126;2023-03-20T09:17:14;9.20;99.90
20512;DHT22;10414;52.074;5.126;2023-03-20T09:19:42;9.20;99.90
20512;DHT22;10414;52.074;5.126;2023-03-20T09:22:11;9.30;99.90
20512;DHT22;10414;52.074;5.126;2023-03-20T09:24:41;9.30;99.90
20512;DHT22;10414;52.074;5.126;2023-03-20T09:27:09;9.30;99.90
20512;DHT22;10414;52.074;5.126;2023-03-20T09:29:38;9.60;99.90
20512;DHT22;10414;52.074;5.126;2023-03-20T09:32:06;9.80;99.90
20512;DHT22;10414;52.074;5.126;2023-03-20T09:34:41;10.00;99.90
20512;DHT22;10414;52.074;5.126;2023-03-20T09:37:08;10.00;99.90
20512;DHT22;10414;52.074;5.126;2023-03-20T09:39:35;10.00;99.90
20512;DHT22;10414;52.074;5.126;2023-03-20T09:42:07;9.80;99.90
20512;DHT22;10414;52.074;5.126;2023-03-20T09:44:48;9.60;99.90
20512;DHT22;10414;52.074;5.126;2023-03-20T09:47:22;9.50;99.90
20512;DHT22;10414;52.074;5.126;2023-03-20T09:52:54;9.70;99.90
20512;DHT22;10414;52.074;5.126;2023-03-20T09:55:26;9.90;99.90
20512;DHT22;10414;52.074;5.126;2023-03-20T09:57:57;10.30;99.90
20512;DHT22;10414;52.074;5.126;2023-03-20T10:00:27;10.40;99.90
20512;DHT22;10414;52.074;5.126;2023-03-20T10:02:59;10.40;99.90
20512;DHT22;10414;52.074;5.126;2023-03-20T10:05:29;10.60;99.90
20512;DHT22;10414;52.074;5.126;2023-03-20T10:07:59;10.40;99.90
20512;DHT22;10414;52.074;5.126;2023-03-20T10:10:38;10.40;99.90
20512;DHT22;10414;52.074;5.126;2023-03-20T10:13:21;10.20;99.90
20512;DHT22;10414;52.074;5.126;2023-03-20T10:15:53;10.10;99.90
20512;DHT22;10414;52.074;5.126;2023-03-20T10:18:41;9.80;99.90
20512;DHT22;10414;52.074;5.126;2023-03-20T10:21:15;9.90;99.90
20512;DHT22;10414;52.074;5.126;2023-03-20T10:23:54;10.20;99.90
20512;DHT22;10414;52.074;5.126;2023-03-20T10:26:26;10.30;99.90
20512;DHT22;10414;52.074;5.126;2023-03-20T10:28:56;10.30;99.90
20512;DHT22;10414;52.074;5.126;2023-03-20T10:31:43;10.30;99.90
20512;DHT22;10414;52.074;5.126;2023-03-20T10:34:29;10.20;99.90
20512;DHT22;10414;52.074;5.126;2023-03-20T10:37:17;10.40;99.90
20512;DHT22;10414;52.074;5.126;2023-03-20T10:39:56;10.70;99.90
20512;DHT22;10414;52.074;5.126;2023-03-20T10:42:29;10.80;99.90
20512;DHT22;10414;52.074;5.126;2023-03-20T10:45:03;10.80;99.90
20512;DHT22;10414;52.074;5.126;2023-03-20T10:47:40;10.40;99.90
20512;DHT22;10414;52.074;5.126;2023-03-20T10:50:14;10.40;99.90
20512;DHT22;10414;52.074;5.126;2023-03-20T10:52:48;10.20;99.90
20512;DHT22;10414;52.074;5.126;2023-03-20T10:55:19;10.20;99.90
20512;DHT22;10414;52.074;5.126;2023-03-20T10:57:56;10.30;99.90
20512;DHT22;10414;52.074;5.126;2023-03-20T11:00:25;10.30;99.90
20512;DHT22;10414;52.074;5.126;2023-03-20T11:02:53;10.40;99.90
20512;DHT22;10414;52.074;5.126;2023-03-20T11:05:28;10.20;99.90
20512;DHT22;10414;52.074;5.126;2023-03-20T11:08:06;10.10;99.90
20512;DHT22;10414;52.074;5.126;2023-03-20T11:10:42;9.90;99.90
20512;DHT22;10414;52.074;5.126;2023-03-20T11:13:21;9.90;99.90
20512;DHT22;10414;52.074;5.126;2023-03-20T11:15:51;9.90;99.90
20512;DHT22;10414;52.074;5.126;2023-03-20T11:18:19;10.00;99.90
20512;DHT22;10414;52.074;5.126;2023-03-20T11:20:49;10.10;99.90
20512;DHT22;10414;52.074;5.126;2023-03-20T11:23:23;10.00;99.90
20512;DHT22;10414;52.074;5.126;2023-03-20T11:25:52;10.00;99.90
20512;DHT22;10414;52.074;5.126;2023-03-20T11:28:30;10.20;99.90
20512;DHT22;10414;52.074;5.126;2023-03-20T11:30:59;10.50;99.90
20512;DHT22;10414;52.074;5.126;2023-03-20T11:33:32;10.50;99.90
20512;DHT22;10414;52.074;5.126;2023-03-20T11:36:11;10.80;99.90
20512;DHT22;10414;52.074;5.126;2023-03-20T11:38:44;10.80;99.90
20512;DHT22;10414;52.074;5.126;2023-03-20T11:41:18;10.60;99.90
20512;DHT22;10414;52.074;5.126;2023-03-20T11:43:45;10.80;99.90
20512;DHT22;10414;52.074;5.126;2023-03-20T11:46:13;10.90;99.90
20512;DHT22;10414;52.074;5.126;2023-03-20T11:48:45;10.90;99.90
20512;DHT22;10414;52.074;5.126;2023-03-20T11:51:15;10.90;99.90
20512;DHT22;10414;52.074;5.126;2023-03-20T11:54:01;10.80;99.90
20512;DHT22;10414;52.074;5.126;2023-03-20T11:56:31;10.80;99.90
20512;DHT22;10414;52.074;5.126;2023-03-20T11:59:01;11.00;99.90
20512;DHT22;10414;52.074;5.126;2023-03-20T12:01:37;11.20;99.90
20512;DHT22;10414;52.074;5.126;2023-03-20T12:04:10;11.40;99.90
20512;DHT22;10414;52.074;5.126;2023-03-20T12:06:43;11.10;99.90
20512;DHT22;10414;52.074;5.126;2023-03-20T12:12:07;11.00;99.90
20512;DHT22;10414;52.074;5.126;2023-03-20T12:14:42;10.90;99.90
20512;DHT22;10414;52.074;5.126;2023-03-20T12:17:29;10.70;99.90
20512;DHT22;10414;52.074;5.126;2023-03-20T12:20:05;10.40;99.90
20512;DHT22;10414;52.074;5.126;2023-03-20T12:22:41;10.40;99.90
20512;DHT22;10414;52.074;5.126;2023-03-20T12:25:19;10.50;99.90
20512;DHT22;10414;52.074;5.126;2023-03-20T12:27:55;10.50;99.90
20512;DHT22;10414;52.074;5.126;2023-03-20T12:30:30;10.60;99.90
20512;DHT22;10414;52.074;5.126;2023-03-20T12:33:03;10.40;99.90
20512;DHT22;10414;52.074;5.126;2023-03-20T12:35:36;10.20;99.90
20512;DHT22;10414;52.074;5.126;2023-03-20T12:38:27;10.20;99.90
20512;DHT22;10414;52.074;5.126;2023-03-20T12:41:11;10.30;99.90
20512;DHT22;10414;52.074;5.126;2023-03-20T12:46:35;9.90;99.90
20512;DHT22;10414;52.074;5.126;2023-03-20T12:49:11;9.80;99.90
20512;DHT22;10414;52.074;5.126;2023-03-20T12:51:54;9.90;99.90
20512;DHT22;10414;52.074;5.126;2023-03-20T12:54:33;10.00;99.90
20512;DHT22;10414;52.074;5.126;2023-03-20T12:57:10;10.20;99.90
20512;DHT22;10414;52.074;5.126;2023-03-20T12:59:50;10.10;99.90
20512;DHT22;10414;52.074;5.126;2023-03-20T13:02:33;10.20;99.90
20512;DHT22;10414;52.074;5.126;2023-03-20T13:05:14;10.20;99.90
20512;DHT22;10414;52.074;5.126;2023-03-20T13:07:57;10.40;99.90
20512;DHT22;10414;52.074;5.126;2023-03-20T13:10:31;10.50;99.90
20512;DHT22;10414;52.074;5.126;2023-03-20T13:13:11;10.30;99.90
20512;DHT22;10414;52.074;5.126;2023-03-20T13:15:46;10.20;99.90
20512;DHT22;10414;52.074;5.126;2023-03-20T13:18:29;10.30;99.90
20512;DHT22;10414;52.074;5.126;2023-03-20T13:21:09;10.20;99.90
20512;DHT22;10414;52.074;5.126;2023-03-20T13:23:44;10.00;99.90
20512;DHT22;10414;52.074;5.126;2023-03-20T13:26:22;10.10;99.90
20512;DHT22;10414;52.074;5.126;2023-03-20T13:29:08;10.00;99.90
20512;DHT22;10414;52.074;5.126;2023-03-20T13:31:46;9.90;99.90
20512;DHT22;10414;52.074;5.126;2023-03-20T13:34:27;9.80;99.90
20512;DHT22;10414;52.074;5.126;2023-03-20T13:37:09;9.80;99.90
20512;DHT22;10414;52.074;5.126;2023-03-20T13:39:45;9.80;99.90
20512;DHT22;10414;52.074;5.126;2023-03-20T13:42:27;9.80;99.90
20512;DHT22;10414;52.074;5.126;2023-03-20T13:45:11;9.80;99.90
20512;DHT22;10414;52.074;5.126;2023-03-20T13:47:49;9.80;99.90
20512;DHT22;10414;52.074;5.126;2023-03-20T13:50:32;9.70;99.90
20512;DHT22;10414;52.074;5.126;2023-03-20T13:53:07;9.70;99.90
20512;DHT22;10414;52.074;5.126;2023-03-20T13:55:43;9.60;99.90
20512;DHT22;10414;52.074;5.126;2023-03-20T13:58:26;9.70;99.90
20512;DHT22;10414;52.074;5.126;2023-03-20T14:01:01;9.60;99.90
20512;DHT22;10414;52.074;5.126;2023-03-20T14:03:31;9.50;99.90
20512;DHT22;10414;52.074;5.126;2023-03-20T14:06:16;9.70;99.90
20512;DHT22;10414;52.074;5.126;2023-03-20T14:08:47;9.60;99.90
20512;DHT22;10414;52.074;5.126;2023-03-20T14:11:28;9.60;99.90
20512;DHT22;10414;52.074;5.126;2023-03-20T14:14:06;9.70;99.90
20512;DHT22;10414;52.074;5.126;2023-03-20T14:16:40;9.70;99.90
20512;DHT22;10414;52.074;5.126;2023-03-20T14:19:17;9.70;99.90
20512;DHT22;10414;52.074;5.126;2023-03-20T14:21:52;9.90;99.90
20512;DHT22;10414;52.074;5.126;2023-03-20T14:24:21;9.90;99.90
20512;DHT22;10414;52.074;5.126;2023-03-20T14:26:54;9.80;99.90
20512;DHT22;10414;52.074;5.126;2023-03-20T14:29:34;9.80;99.90
20512;DHT22;10414;52.074;5.126;2023-03-20T14:32:33;9.90;99.90
20512;DHT22;10414;52.074;5.126;2023-03-20T14:35:22;9.90;99.90
20512;DHT22;10414;52.074;5.126;2023-03-20T14:38:19;9.80;99.90
20512;DHT22;10414;52.074;5.126;2023-03-20T14:40:56;9.70;99.90
20512;DHT22;10414;52.074;5.126;2023-03-20T14:43:37;9.80;99.90
20512;DHT22;10414;52.074;5.126;2023-03-20T14:46:06;9.80;99.90
20512;DHT22;10414;52.074;5.126;2023-03-20T14:48:46;9.80;99.90
20512;DHT22;10414;52.074;5.126;2023-03-20T14:51:24;9.80;99.90
20512;DHT22;10414;52.074;5.126;2023-03-20T14:53:54;9.80;99.90
20512;DHT22;10414;52.074;5.126;2023-03-20T14:56:27;9.70;99.90
20512;DHT22;10414;52.074;5.126;2023-03-20T14:59:03;9.70;99.90
20512;DHT22;10414;52.074;5.126;2023-03-20T15:01:55;9.70;99.90
20512;DHT22;10414;52.074;5.126;2023-03-20T15:04:28;9.70;99.90
20512;DHT22;10414;52.074;5.126;2023-03-20T15:06:58;9.70;99.90
20512;DHT22;10414;52.074;5.126;2023-03-20T15:09:28;9.70;99.90
20512;DHT22;10414;52.074;5.126;2023-03-20T15:11:58;9.80;99.90
20512;DHT22;10414;52.074;5.126;2023-03-20T15:14:32;9.80;99.90
20512;DHT22;10414;52.074;5.126;2023-03-20T15:17:01;9.80;99.90
20512;DHT22;10414;52.074;5.126;2023-03-20T15:19:32;9.80;99.90
20512;DHT22;10414;52.074;5.126;2023-03-20T15:22:14;10.10;99.90
20512;DHT22;10414;52.074;5.126;2023-03-20T15:24:54;10.20;99.90
20512;DHT22;10414;52.074;5.126;2023-03-20T15:27:25;10.20;99.90
20512;DHT22;10414;52.074;5.126;2023-03-20T15:29:56;10.00;99.90
20512;DHT22;10414;52.074;5.126;2023-03-20T15:32:26;9.90;99.90
20512;DHT22;10414;52.074;5.126;2023-03-20T15:34:54;10.00;99.90
20512;DHT22;10414;52.074;5.126;2023-03-20T15:37:26;9.90;99.90
20512;DHT22;10414;52.074;5.126;2023-03-20T15:39:56;9.90;99.90
20512;DHT22;10414;52.074;5.126;2023-03-20T15:42:24;9.80;99.90
20512;DHT22;10414;52.074;5.126;2023-03-20T15:44:54;9.90;99.90
20512;DHT22;10414;52.074;5.126;2023-03-20T15:47:22;9.80;99.90
20512;DHT22;10414;52.074;5.126;2023-03-20T15:49:52;9.90;99.90
20512;DHT22;10414;52.074;5.126;2023-03-20T15:52:26;9.90;99.90
20512;DHT22;10414;52.074;5.126;2023-03-20T15:55:00;9.80;99.90
20512;DHT22;10414;52.074;5.126;2023-03-20T15:57:34;9.80;99.90
20512;DHT22;10414;52.074;5.126;2023-03-20T16:00:04;9.80;99.90
20512;DHT22;10414;52.074;5.126;2023-03-20T16:02:35;9.80;99.90
20512;DHT22;10414;52.074;5.126;2023-03-20T16:05:03;9.80;99.90
20512;DHT22;10414;52.074;5.126;2023-03-20T16:07:38;10.00;99.90
20512;DHT22;10414;52.074;5.126;2023-03-20T16:10:16;10.00;99.90
20512;DHT22;10414;52.074;5.126;2023-03-20T16:12:50;9.90;99.90
20512;DHT22;10414;52.074;5.126;2023-03-20T16:15:23;9.80;99.90
20512;DHT22;10414;52.074;5.126;2023-03-20T16:17:58;9.80;99.90
20512;DHT22;10414;52.074;5.126;2023-03-20T16:20:29;9.80;99.90
20512;DHT22;10414;52.074;5.126;2023-03-20T16:23:07;9.80;99.90
20512;DHT22;10414;52.074;5.126;2023-03-20T16:25:36;9.90;99.90
20512;DHT22;10414;52.074;5.126;2023-03-20T16:28:17;10.10;99.90
20512;DHT22;10414;52.074;5.126;2023-03-20T16:30:46;10.10;99.90
20512;DHT22;10414;52.074;5.126;2023-03-20T16:33:16;10.10;99.90